Time;durP1;ratioP1;P1;durP2;ratioP2;P2;SDS_P1;SDS_P2;PMS_P1;PMS_P2;Temp;Humidity;BMP_temperature;BMP_pressure;BME280_temperature;BME280_humidity;BME280_pressure;Samples;Min_cycle;Max_cycle;Signal;HPM_P1;HPM_P2
2022/05/01 00:01:35;;;;;;;39.07;23.50;;;11.00;1.00;;;;;;5053702;28;20417;-57
2022/05/01 00:04:01;;;;;;;42.33;25.33;;;11.10;1.00;;;;;;5069579;28;20905;-57
2022/05/01 00:06:26;;;;;;;40.53;23.83;;;11.10;1.00;;;;;;5069118;28;20433;-57
2022/05/01 00:08:52;;;;;;;43.53;24.20;;;11.00;1.00;;;;;;5051889;28;20904;-57
2022/05/01 00:11:18;;;;;;;43.88;24.63;;;11.00;1.00;;;;;;5053838;28;20912;-57
2022/05/01 00:13:45;;;;;;;44.80;25.10;;;10.90;1.00;;;;;;5072169;28;20414;-57
2022/05/01 00:16:14;;;;;;;40.42;24.20;;;10.90;1.00;;;;;;5070428;28;20601;-57
2022/05/01 00:18:41;;;;;;;41.75;23.90;;;10.80;1.00;;;;;;5052651;28;20468;-57
2022/05/01 00:21:07;;;;;;;41.38;24.65;;;10.90;1.00;;;;;;5051620;28;20460;-57
2022/05/01 00:23:33;;;;;;;44.88;24.65;;;10.90;1.00;;;;;;5071700;28;20503;-57
2022/05/01 00:26:00;;;;;;;46.20;24.83;;;10.90;1.00;;;;;;5071585;28;20513;-57
2022/05/01 00:28:26;;;;;;;47.50;25.75;;;10.80;1.00;;;;;;5051149;28;20480;-57
2022/05/01 00:30:52;;;;;;;45.37;25.40;;;10.80;1.00;;;;;;5051732;28;20913;-57
2022/05/01 00:38:46;;;;;;;47.35;26.35;;;10.50;1.00;;;;;;5051883;28;20861;-57
2022/05/01 00:41:12;;;;;;;50.70;27.00;;;10.40;1.00;;;;;;5051754;28;20460;-57
2022/05/01 00:43:57;;;;;;;45.72;25.45;;;10.30;2.60;;;;;;5071662;28;20465;-57
2022/05/01 00:46:24;;;;;;;48.20;25.60;;;10.10;14.70;;;;;;5069663;28;20387;-57
2022/05/01 00:48:50;;;;;;;47.90;26.80;;;10.10;20.20;;;;;;5034246;28;20751;-57
2022/05/01 00:51:16;;;;;;;43.58;24.83;;;11.50;12.80;;;;;;5068452;28;20415;-57
2022/05/01 00:53:43;;;;;;;47.70;26.88;;;10.30;12.80;;;;;;5071472;28;20514;-57
2022/05/01 00:56:09;;;;;;;44.13;25.45;;;10.40;1.00;;;;;;5053977;28;20495;-57
2022/05/01 00:58:36;;;;;;;44.25;25.52;;;10.50;1.00;;;;;;5051831;28;20387;-57
2022/05/01 01:01:02;;;;;;;52.63;25.35;;;10.50;1.00;;;;;;5065990;28;20446;-57
2022/05/01 01:03:28;;;;;;;44.85;25.38;;;10.60;1.00;;;;;;5071919;28;20501;-57
2022/05/01 01:05:54;;;;;;;47.00;25.25;;;10.60;1.00;;;;;;5056229;28;20401;-58
2022/05/01 01:08:20;;;;;;;46.70;25.00;;;10.60;1.00;;;;;;5051178;28;20377;-57
2022/05/01 01:10:45;;;;;;;47.15;26.58;;;10.60;1.00;;;;;;5052656;28;20401;-57
2022/05/01 01:13:12;;;;;;;52.17;24.03;;;10.60;1.00;;;;;;5050253;28;20382;-57
2022/05/01 01:15:38;;;;;;;44.55;25.17;;;10.60;1.00;;;;;;5041363;28;20399;-57
2022/05/01 01:18:04;;;;;;;44.40;24.80;;;10.60;1.00;;;;;;5054835;28;20874;-57
2022/05/01 01:20:31;;;;;;;47.80;25.57;;;10.70;1.00;;;;;;5051028;28;20774;-58
2022/05/01 01:22:59;;;;;;;48.53;24.90;;;10.70;1.00;;;;;;5060165;28;20411;-57
2022/05/01 01:25:29;;;;;;;41.33;23.60;;;10.70;1.00;;;;;;5053160;28;20983;-57
2022/05/01 01:28:02;;;;;;;46.88;26.08;;;10.70;1.00;;;;;;5060568;28;20486;-57
2022/05/01 01:33:25;;;;;;;44.13;23.83;;;10.60;1.00;;;;;;5057985;28;20407;-57
2022/05/01 01:35:51;;;;;;;41.45;25.42;;;10.60;1.00;;;;;;5067450;28;20379;-57
2022/05/01 01:38:18;;;;;;;45.05;26.50;;;10.60;1.00;;;;;;5069480;28;20857;-57
2022/05/01 01:40:48;;;;;;;44.10;24.20;;;10.70;1.00;;;;;;5070197;28;20418;-57
2022/05/01 01:43:18;;;;;;;45.67;24.25;;;10.80;1.00;;;;;;5067946;28;20384;-57
2022/05/01 01:45:44;;;;;;;45.38;24.48;;;10.90;1.00;;;;;;5054404;28;20401;-57
2022/05/01 01:48:13;;;;;;;44.28;25.48;;;10.90;1.00;;;;;;5049629;28;20385;-57
2022/05/01 01:50:40;;;;;;;46.80;26.60;;;10.80;1.00;;;;;;5065431;28;20502;-57
2022/05/01 01:53:06;;;;;;;47.92;26.40;;;10.80;1.00;;;;;;5069316;28;20384;-57
2022/05/01 01:55:32;;;;;;;46.58;26.60;;;10.70;1.00;;;;;;5068462;28;20406;-57
2022/05/01 01:57:58;;;;;;;53.00;24.40;;;10.60;1.00;;;;;;5069172;28;20376;-58
2022/05/01 02:00:24;;;;;;;42.90;24.05;;;10.50;1.00;;;;;;5057363;28;20744;-57
2022/05/01 02:02:58;;;;;;;45.53;24.75;;;10.50;1.00;;;;;;5032561;28;20378;-57
2022/05/01 02:05:24;;;;;;;41.88;24.67;;;10.50;1.00;;;;;;5062333;28;20416;-57
2022/05/01 02:07:51;;;;;;;45.00;25.55;;;10.60;1.00;;;;;;5069927;28;20437;-57
2022/05/01 02:10:17;;;;;;;52.05;24.75;;;10.50;1.00;;;;;;5057953;28;20489;-57
2022/05/01 02:12:43;;;;;;;41.90;22.83;;;10.50;1.00;;;;;;5050303;28;20377;-57
2022/05/01 02:15:09;;;;;;;41.95;24.75;;;10.60;1.00;;;;;;5041000;28;20396;-57
2022/05/01 02:17:35;;;;;;;48.53;26.50;;;10.70;1.00;;;;;;5070153;28;20437;-57
2022/05/01 02:20:01;;;;;;;44.22;23.90;;;10.70;1.00;;;;;;5059473;28;20782;-57
2022/05/01 02:22:27;;;;;;;47.70;24.97;;;10.60;1.00;;;;;;5057255;28;20411;-57
2022/05/01 02:24:54;;;;;;;46.05;25.02;;;10.50;1.00;;;;;;5070028;28;20411;-57
2022/05/01 02:27:20;;;;;;;45.55;24.52;;;10.50;1.00;;;;;;5069953;28;20679;-57
2022/05/01 02:29:46;;;;;;;47.35;25.30;;;10.40;1.00;;;;;;5076717;28;20401;-57
2022/05/01 02:32:12;;;;;;;47.78;24.92;;;10.40;1.00;;;;;;5089257;28;20374;-57
2022/05/01 02:34:38;;;;;;;43.53;24.48;;;10.30;1.00;;;;;;5084065;28;20915;-57
2022/05/01 02:37:04;;;;;;;46.00;24.77;;;10.40;1.00;;;;;;5070391;28;20372;-57
2022/05/01 02:39:35;;;;;;;45.63;25.80;;;10.50;1.00;;;;;;5090557;28;20386;-57
2022/05/01 02:42:01;;;;;;;49.53;26.15;;;10.70;1.00;;;;;;5088160;28;20386;-57
2022/05/01 02:44:27;;;;;;;53.53;25.48;;;10.70;1.00;;;;;;5069698;28;20435;-57
2022/05/01 02:46:52;;;;;;;49.17;25.73;;;10.60;1.00;;;;;;5069498;28;20849;-57
2022/05/01 02:49:20;;;;;;;47.60;25.80;;;10.60;1.00;;;;;;5088243;28;20397;-57
2022/05/01 02:51:45;;;;;;;47.57;25.57;;;10.60;1.00;;;;;;5092006;28;20397;-57
2022/05/01 02:54:11;;;;;;;47.17;25.48;;;10.60;1.00;;;;;;5059136;28;20403;-57
2022/05/01 02:56:37;;;;;;;45.73;25.47;;;10.60;1.00;;;;;;5076778;28;20395;-57
2022/05/01 02:59:03;;;;;;;46.28;25.58;;;10.60;1.00;;;;;;5092480;28;20802;-57
2022/05/01 03:01:31;;;;;;;46.97;25.83;;;10.60;1.00;;;;;;5096737;28;20447;-57
2022/05/01 03:03:57;;;;;;;49.08;25.30;;;10.60;1.00;;;;;;5079721;28;20414;-57
2022/05/01 03:06:23;;;;;;;46.95;25.33;;;10.60;1.00;;;;;;5059274;28;20399;-57
2022/05/01 03:08:48;;;;;;;46.30;24.70;;;10.50;1.00;;;;;;5076377;28;20787;-57
2022/05/01 03:11:14;;;;;;;50.47;26.58;;;10.50;1.00;;;;;;5085547;28;20423;-57
2022/05/01 03:13:40;;;;;;;42.85;23.92;;;10.50;1.00;;;;;;5078297;28;20447;-57
2022/05/01 03:16:05;;;;;;;46.13;24.93;;;10.50;1.00;;;;;;5094969;28;20476;-57
2022/05/01 03:23:59;;;;;;;47.80;24.83;;;10.60;1.00;;;;;;5095193;28;20420;-57
2022/05/01 03:26:25;;;;;;;49.47;25.60;;;10.60;1.00;;;;;;5084322;28;20387;-57
2022/05/01 03:28:51;;;;;;;45.75;25.65;;;10.60;1.00;;;;;;5075967;28;20422;-57
2022/05/01 03:31:17;;;;;;;49.40;25.50;;;10.50;1.00;;;;;;5085105;28;20386;-57
2022/05/01 03:33:44;;;;;;;50.03;28.65;;;10.50;1.00;;;;;;5090560;28;20482;-57
2022/05/01 03:36:11;;;;;;;46.00;26.55;;;10.40;1.00;;;;;;5075250;28;20383;-57
2022/05/01 03:38:39;;;;;;;46.75;25.05;;;10.40;1.00;;;;;;5080099;28;20382;-57
2022/05/01 03:41:06;;;;;;;44.67;24.80;;;10.40;1.00;;;;;;5095028;28;20386;-57
2022/05/01 03:43:33;;;;;;;44.75;26.90;;;10.50;1.00;;;;;;5086362;28;20495;-57
2022/05/01 03:46:00;;;;;;;46.97;25.67;;;10.50;1.00;;;;;;5075210;28;20449;-58
2022/05/01 03:48:26;;;;;;;48.90;25.80;;;10.50;1.00;;;;;;5084226;28;20465;-57
2022/05/01 03:50:53;;;;;;;46.90;26.15;;;10.50;1.00;;;;;;5096161;28;20408;-57
2022/05/01 03:53:19;;;;;;;48.22;26.15;;;10.50;1.00;;;;;;5087504;28;20383;-57
2022/05/01 03:55:45;;;;;;;44.22;24.90;;;10.40;1.00;;;;;;5075809;28;20380;-57
2022/05/01 03:58:11;;;;;;;47.88;25.45;;;10.30;1.00;;;;;;5080609;28;20801;-57
2022/05/01 04:00:37;;;;;;;47.77;26.63;;;10.30;1.00;;;;;;5095868;28;20378;-57
2022/05/01 04:03:03;;;;;;;49.25;25.80;;;10.40;1.00;;;;;;5077439;28;20391;-57
2022/05/01 04:05:28;;;;;;;45.17;25.67;;;10.40;1.00;;;;;;5072443;28;20502;-57
2022/05/01 04:07:54;;;;;;;45.90;25.97;;;10.40;1.00;;;;;;5087337;28;20470;-57
2022/05/01 04:10:20;;;;;;;47.08;24.98;;;10.40;1.00;;;;;;5091751;28;20468;-57
2022/05/01 04:12:46;;;;;;;47.27;25.40;;;10.50;1.00;;;;;;5078774;28;20387;-57
2022/05/01 04:15:14;;;;;;;48.05;26.50;;;10.50;1.00;;;;;;5071539;28;20412;-57
2022/05/01 04:17:40;;;;;;;48.08;26.10;;;10.50;1.00;;;;;;5084836;28;20454;-57
2022/05/01 04:20:13;;;;;;;49.78;27.15;;;10.50;1.00;;;;;;5091739;28;20893;-57
2022/05/01 04:22:49;;;;;;;46.97;26.85;;;10.60;1.00;;;;;;5079449;28;20872;-57
2022/05/01 04:25:15;;;;;;;47.88;26.40;;;10.50;1.00;;;;;;5071042;28;20414;-57
2022/05/01 04:27:42;;;;;;;53.22;26.48;;;10.50;1.00;;;;;;5084600;28;20401;-58
2022/05/01 04:30:11;;;;;;;45.33;25.92;;;10.50;1.00;;;;;;5082811;28;20884;-58
2022/05/01 04:32:53;;;;;;;52.80;26.00;;;10.60;1.00;;;;;;5071993;28;20384;-59
2022/05/01 04:35:40;;;;;;;44.92;25.60;;;10.60;1.00;;;;;;5080664;28;20390;-58
2022/05/01 04:38:08;;;;;;;45.90;26.42;;;10.60;1.00;;;;;;5091445;28;20378;-57
2022/05/01 04:40:39;;;;;;;47.20;26.10;;;10.60;1.00;;;;;;5080008;28;20427;-57
2022/05/01 04:43:08;;;;;;;44.35;24.48;;;10.60;1.00;;;;;;5053175;28;20812;-57
2022/05/01 04:45:35;;;;;;;47.10;26.42;;;10.50;1.00;;;;;;5074055;28;20416;-57
2022/05/01 04:48:02;;;;;;;46.72;25.95;;;10.50;1.00;;;;;;5083226;28;20467;-57
2022/05/01 04:50:28;;;;;;;48.27;26.27;;;10.50;1.00;;;;;;5087129;28;20399;-57
2022/05/01 04:52:54;;;;;;;50.17;27.27;;;10.40;1.00;;;;;;5075061;28;20956;-57
2022/05/01 04:55:21;;;;;;;49.60;26.55;;;10.30;17.90;;;;;;5074786;28;20392;-58
2022/05/01 04:57:47;;;;;;;50.40;27.23;;;10.30;19.80;;;;;;5081402;28;20393;-57
2022/05/01 05:00:19;;;;;;;52.33;26.40;;;10.40;6.90;;;;;;5073265;28;20392;-57
2022/05/01 05:02:48;;;;;;;43.60;25.00;;;10.40;12.50;;;;;;5076037;28;20401;-57
2022/05/01 05:05:14;;;;;;;50.95;26.50;;;10.40;5.10;;;;;;5090821;28;20402;-57
2022/05/01 05:07:40;;;;;;;47.22;25.63;;;10.50;1.00;;;;;;5089632;28;20421;-57
2022/05/01 05:10:08;;;;;;;46.58;24.95;;;10.50;1.00;;;;;;5090924;28;20378;-57
2022/05/01 05:12:35;;;;;;;46.90;24.73;;;10.50;1.00;;;;;;5087975;28;20822;-57
2022/05/01 05:15:03;;;;;;;44.58;25.77;;;10.40;1.00;;;;;;5070503;28;20387;-58
2022/05/01 05:17:31;;;;;;;45.83;25.35;;;10.30;4.60;;;;;;5073298;28;20904;-57
2022/05/01 05:19:57;;;;;;;42.87;24.10;;;10.40;1.00;;;;;;5091235;28;20386;-57
2022/05/01 05:22:23;;;;;;;48.88;26.55;;;10.40;1.00;;;;;;5079410;28;20421;-57
2022/05/01 05:24:49;;;;;;;42.35;22.83;;;10.40;1.00;;;;;;5041730;28;20415;-57
2022/05/01 05:27:15;;;;;;;40.57;23.00;;;10.50;10.90;;;;;;5035205;28;20405;-58
2022/05/01 05:29:41;;;;;;;41.97;24.13;;;10.80;1.00;;;;;;5050896;28;20425;-57
2022/05/01 05:32:07;;;;;;;42.08;24.67;;;10.90;1.00;;;;;;5051237;28;20429;-58
2022/05/01 05:34:33;;;;;;;44.47;24.27;;;11.00;1.00;;;;;;5050821;28;20377;-58
2022/05/01 05:36:58;;;;;;;45.47;24.37;;;11.20;1.00;;;;;;5060263;28;20404;-57
2022/05/01 05:39:24;;;;;;;41.03;23.35;;;11.10;1.00;;;;;;5070469;28;20442;-57
2022/05/01 05:41:50;;;;;;;41.80;23.47;;;11.20;1.00;;;;;;5068896;28;20430;-58
2022/05/01 05:44:16;;;;;;;40.95;23.27;;;11.30;1.00;;;;;;5069971;28;20411;-58
2022/05/01 05:46:41;;;;;;;40.50;22.13;;;11.30;1.00;;;;;;5043012;28;20899;-58
2022/05/01 05:49:07;;;;;;;42.97;23.13;;;11.40;1.00;;;;;;5031988;28;20459;-58
2022/05/01 05:51:33;;;;;;;42.45;23.02;;;11.40;1.00;;;;;;5058270;28;20403;-58
2022/05/01 05:53:59;;;;;;;41.28;23.45;;;11.40;1.00;;;;;;5070214;28;20438;-55
2022/05/01 05:56:24;;;;;;;39.50;22.50;;;11.50;1.00;;;;;;5062383;28;20401;-55
2022/05/01 05:58:50;;;;;;;41.77;22.57;;;11.50;1.00;;;;;;5049963;28;20373;-55
2022/05/01 06:01:16;;;;;;;36.80;22.42;;;11.50;1.00;;;;;;5069339;28;20395;-55
2022/05/01 06:03:42;;;;;;;35.67;21.60;;;11.70;1.00;;;;;;5067499;28;20498;-55
2022/05/01 06:06:08;;;;;;;38.63;24.05;;;11.80;99.90;;;;;;5058623;28;20481;-55
2022/05/01 06:08:38;;;;;;;38.38;23.02;;;11.80;99.90;;;;;;5057102;28;20565;-55
2022/05/01 06:11:05;;;;;;;39.25;22.63;;;11.80;99.90;;;;;;5050626;28;20472;-55
2022/05/01 06:13:32;;;;;;;38.05;22.30;;;11.70;99.90;;;;;;5052348;28;20944;-55
2022/05/01 06:15:58;;;;;;;37.33;22.57;;;11.70;99.90;;;;;;5069590;28;20403;-55
2022/05/01 06:18:24;;;;;;;37.05;21.95;;;11.80;99.90;;;;;;5069226;28;20406;-55
2022/05/01 06:20:50;;;;;;;38.05;22.40;;;11.90;99.90;;;;;;5053521;28;20770;-55
2022/05/01 06:23:16;;;;;;;37.70;22.85;;;12.10;99.90;;;;;;5075602;28;20416;-55
2022/05/01 06:25:43;;;;;;;37.72;22.75;;;12.10;99.90;;;;;;5090081;28;20771;-55
2022/05/01 06:28:10;;;;;;;36.83;21.60;;;12.30;99.90;;;;;;5089075;28;20386;-56
2022/05/01 06:30:41;;;;;;;35.03;21.52;;;12.30;21.10;;;;;;5076960;28;20410;-56
2022/05/01 06:33:12;;;;;;;36.22;21.38;;;12.50;24.10;;;;;;5070351;28;20394;-56
2022/05/01 06:35:38;;;;;;;38.45;22.63;;;12.70;1.00;;;;;;5083208;28;20423;-56
2022/05/01 06:38:07;;;;;;;34.20;21.10;;;12.90;1.00;;;;;;5089145;28;20434;-56
2022/05/01 06:40:33;;;;;;;34.55;21.20;;;13.10;1.00;;;;;;5090087;28;20421;-56
2022/05/01 06:42:59;;;;;;;38.00;21.47;;;13.10;99.90;;;;;;5091153;28;20401;-56
2022/05/01 06:45:25;;;;;;;33.70;19.92;;;13.10;1.00;;;;;;5077045;28;20430;-56
2022/05/01 06:47:51;;;;;;;37.92;21.25;;;12.80;1.00;;;;;;5086615;28;20394;-56
2022/05/01 06:50:17;;;;;;;34.57;20.77;;;12.70;1.00;;;;;;5083070;28;20388;-56
2022/05/01 06:52:42;;;;;;;34.90;20.83;;;12.80;99.90;;;;;;5082356;28;20479;-56
2022/05/01 06:55:09;;;;;;;35.75;21.45;;;12.90;1.00;;;;;;5063154;28;20952;-56
2022/05/01 06:57:35;;;;;;;36.28;21.40;;;12.80;1.00;;;;;;5083436;28;20493;-56
2022/05/01 07:00:01;;;;;;;33.40;20.10;;;12.70;1.00;;;;;;5081893;28;20924;-56
2022/05/01 07:02:26;;;;;;;34.45;20.75;;;12.60;26.10;;;;;;5080990;28;20424;-56
2022/05/01 07:04:52;;;;;;;35.70;20.40;;;12.90;99.90;;;;;;5081981;28;20410;-56
2022/05/01 07:07:20;;;;;;;29.63;19.15;;;13.10;95.20;;;;;;5078425;28;20399;-56
2022/05/01 07:09:45;;;;;;;37.42;20.90;;;13.40;1.00;;;;;;5074536;28;20581;-56
2022/05/01 07:12:11;;;;;;;36.85;20.27;;;13.70;11.90;;;;;;5087881;28;20413;-56
2022/05/01 07:14:38;;;;;;;34.83;20.65;;;13.90;29.10;;;;;;5077022;28;20391;-56
2022/05/01 07:17:04;;;;;;;33.67;21.25;;;13.90;1.00;;;;;;5071056;28;20452;-57
2022/05/01 07:19:30;;;;;;;33.58;20.70;;;13.60;1.00;;;;;;5069606;28;20475;-56
2022/05/01 07:21:55;;;;;;;31.63;20.25;;;13.50;1.00;;;;;;5081729;28;20487;-57
2022/05/01 07:24:21;;;;;;;32.40;20.35;;;13.50;1.00;;;;;;5069833;28;20454;-57
2022/05/01 07:26:53;;;;;;;32.47;20.10;;;13.40;1.00;;;;;;5055571;28;20398;-57
2022/05/01 07:29:18;;;;;;;31.48;20.20;;;13.50;1.00;;;;;;5056853;28;20509;-57
2022/05/01 07:31:44;;;;;;;34.97;20.70;;;13.50;1.00;;;;;;5064533;28;20487;-57
2022/05/01 07:34:10;;;;;;;30.88;20.45;;;13.50;1.00;;;;;;5058166;28;20898;-57
2022/05/01 07:36:37;;;;;;;30.33;19.55;;;13.50;1.00;;;;;;5054929;28;20412;-57
2022/05/01 07:39:03;;;;;;;39.33;20.40;;;13.60;1.00;;;;;;5059060;28;20455;-57
2022/05/01 07:41:29;;;;;;;31.67;19.67;;;13.40;1.00;;;;;;5065027;28;20399;-57
2022/05/01 07:43:57;;;;;;;30.65;19.13;;;13.60;1.00;;;;;;5074569;28;20470;-57
2022/05/01 07:46:23;;;;;;;30.25;18.83;;;13.80;99.90;;;;;;5065272;28;20405;-57
2022/05/01 07:48:49;;;;;;;36.45;19.30;;;13.80;99.90;;;;;;5048689;28;20458;-57
2022/05/01 07:51:18;;;;;;;31.15;19.23;;;13.80;99.90;;;;;;5066049;28;20905;-57
2022/05/01 07:53:44;;;;;;;31.13;19.77;;;13.90;99.90;;;;;;5061248;28;20472;-57
2022/05/01 07:56:10;;;;;;;30.35;18.98;;;14.20;84.20;;;;;;5061054;28;20394;-57
2022/05/01 07:58:38;;;;;;;33.90;21.10;;;14.40;1.00;;;;;;5046978;28;20794;-57
2022/05/01 08:01:04;;;;;;;28.10;18.53;;;14.60;1.00;;;;;;5053062;28;20408;-57
2022/05/01 08:06:15;;;;;;;30.80;20.23;;;14.90;99.90;;;;;;5064585;28;20462;-57
2022/05/01 08:08:41;;;;;;;26.60;17.80;;;14.80;99.90;;;;;;5057059;28;20892;-57
2022/05/01 08:11:08;;;;;;;28.00;18.00;;;15.00;99.90;;;;;;5061572;28;20392;-58
2022/05/01 08:13:34;;;;;;;28.67;18.83;;;16.00;99.90;;;;;;5060658;28;20413;-57
2022/05/01 08:16:00;;;;;;;26.58;17.77;;;17.20;1.00;;;;;;5056944;28;21488;-57
2022/05/01 08:21:10;;;;;;;25.02;17.30;;;16.90;1.00;;;;;;5062832;28;20438;-57
2022/05/01 08:23:41;;;;;;;27.00;17.80;;;16.50;1.00;;;;;;5081186;28;20410;-57
2022/05/01 08:26:10;;;;;;;26.83;17.70;;;16.40;1.00;;;;;;5086936;28;20405;-58
2022/05/01 08:28:38;;;;;;;26.97;17.10;;;16.40;1.00;;;;;;5087263;28;20991;-57
2022/05/01 08:31:05;;;;;;;27.02;17.10;;;16.50;1.00;;;;;;5090025;28;20417;-57
2022/05/01 08:33:35;;;;;;;23.25;15.70;;;16.50;1.00;;;;;;5086675;28;20398;-57
2022/05/01 08:36:04;;;;;;;25.97;16.33;;;16.00;1.00;;;;;;5089483;28;20386;-57
2022/05/01 08:38:30;;;;;;;26.45;16.60;;;16.10;1.00;;;;;;5084816;28;20375;-55
2022/05/01 08:40:56;;;;;;;24.83;16.60;;;16.30;1.00;;;;;;5081876;28;20383;-55
2022/05/01 08:43:27;;;;;;;25.98;16.25;;;16.40;1.00;;;;;;5064634;28;20424;-55
2022/05/01 08:46:09;;;;;;;24.02;15.20;;;16.50;1.00;;;;;;5084615;28;20413;-55
2022/05/01 08:48:46;;;;;;;24.42;15.27;;;16.50;1.00;;;;;;5086657;28;20374;-54
2022/05/01 08:51:13;;;;;;;22.23;15.77;;;16.60;1.00;;;;;;5082154;28;20480;-55
2022/05/01 08:53:42;;;;;;;23.50;15.20;;;16.70;1.00;;;;;;5084309;28;20399;-55
2022/05/01 08:56:07;;;;;;;23.98;15.68;;;17.00;1.00;;;;;;5083379;28;20397;-62
2022/05/01 08:58:34;;;;;;;21.40;14.65;;;17.00;99.90;;;;;;5083799;28;20388;-55
2022/05/01 09:01:00;;;;;;;24.58;14.95;;;16.80;99.90;;;;;;5064701;28;20409;-54
2022/05/01 09:03:26;;;;;;;23.63;15.30;;;16.60;99.90;;;;;;5082511;28;21005;-55
2022/05/01 09:05:52;;;;;;;22.20;14.80;;;16.70;99.90;;;;;;5077976;28;20388;-55
2022/05/01 09:08:18;;;;;;;23.13;14.55;;;16.70;99.90;;;;;;5076556;28;20410;-54
2022/05/01 09:10:45;;;;;;;20.92;14.52;;;16.50;99.90;;;;;;5079919;28;20490;-55
2022/05/01 09:13:11;;;;;;;22.90;14.30;;;16.10;99.90;;;;;;5077236;28;20389;-56
2022/05/01 09:15:40;;;;;;;21.90;14.30;;;16.80;99.90;;;;;;5091323;28;20383;-55
2022/05/01 09:18:10;;;;;;;21.60;14.50;;;17.80;99.90;;;;;;5090325;28;20381;-60
2022/05/01 09:20:39;;;;;;;20.20;13.00;;;18.40;99.90;;;;;;5092198;28;20425;-55
2022/05/01 09:23:06;;;;;;;21.00;14.25;;;18.40;99.90;;;;;;5073704;28;20814;-56
2022/05/01 09:25:33;;;;;;;22.13;13.82;;;18.40;99.90;;;;;;5085217;28;20465;-58
2022/05/01 09:28:17;;;;;;;22.77;15.07;;;19.00;99.90;;;;;;5065987;28;20441;-58
2022/05/01 09:30:45;;;;;;;21.90;14.50;;;19.20;99.90;;;;;;5080914;28;20377;-58
2022/05/01 09:33:21;;;;;;;23.25;14.80;;;19.30;99.90;;;;;;5084124;28;20918;-58
2022/05/01 09:35:48;;;;;;;20.50;13.60;;;18.60;99.90;;;;;;5078036;28;20429;-57
2022/05/01 09:38:33;;;;;;;23.75;13.27;;;18.20;99.90;;;;;;5075531;28;20409;-57
2022/05/01 09:41:01;;;;;;;22.27;14.25;;;17.70;99.90;;;;;;5076107;28;20400;-57
2022/05/01 09:43:44;;;;;;;23.27;13.65;;;17.40;99.90;;;;;;5070550;28;20433;-57
2022/05/01 09:46:29;;;;;;;21.52;13.45;;;17.50;99.90;;;;;;5069879;28;20391;-58
2022/05/01 09:49:10;;;;;;;24.08;15.35;;;17.80;99.90;;;;;;5069616;28;20451;-56
2022/05/01 09:51:46;;;;;;;22.35;14.77;;;18.30;99.90;;;;;;5070581;28;20446;-57
2022/05/01 09:54:23;;;;;;;21.42;14.73;;;18.20;99.90;;;;;;5069421;28;20741;-58
2022/05/01 09:56:54;;;;;;;23.50;15.30;;;18.20;99.90;;;;;;5070034;28;20375;-57
2022/05/01 09:59:24;;;;;;;22.65;14.90;;;18.10;99.90;;;;;;5069449;28;20375;-57
2022/05/01 10:02:03;;;;;;;22.42;14.40;;;18.60;99.90;;;;;;5070434;28;20379;-57
2022/05/01 10:04:31;;;;;;;20.92;14.10;;;18.40;99.90;;;;;;5069237;28;20404;-57
2022/05/01 10:06:58;;;;;;;20.33;13.77;;;18.40;99.90;;;;;;5069948;28;20788;-57
2022/05/01 10:09:28;;;;;;;21.60;14.30;;;18.40;99.90;;;;;;5069731;28;20384;-57
2022/05/01 10:11:55;;;;;;;20.10;13.32;;;18.60;99.90;;;;;;5070183;28;20380;-57
2022/05/01 10:14:22;;;;;;;21.33;14.30;;;18.60;99.90;;;;;;5080880;28;20382;-55
2022/05/01 10:16:48;;;;;;;21.05;13.82;;;18.50;99.90;;;;;;5090223;28;20392;-55
2022/05/01 10:19:18;;;;;;;20.13;13.82;;;18.40;99.90;;;;;;5089325;28;20381;-55
2022/05/01 10:21:50;;;;;;;21.25;14.30;;;18.40;99.90;;;;;;5089724;28;20377;-54
2022/05/01 10:24:16;;;;;;;22.10;14.05;;;18.50;99.90;;;;;;5088866;28;20402;-55
2022/05/01 10:27:05;;;;;;;23.17;15.10;;;18.40;99.90;;;;;;5090059;28;20427;-57
2022/05/01 10:29:40;;;;;;;23.67;15.02;;;18.10;99.90;;;;;;5089023;28;20562;-55
2022/05/01 10:32:21;;;;;;;23.40;14.43;;;18.00;99.90;;;;;;5090419;28;20409;-56
2022/05/01 10:35:07;;;;;;;22.73;14.20;;;17.60;99.90;;;;;;5089981;28;20382;-57
2022/05/01 10:38:14;;;;;;;21.27;14.45;;;17.10;99.90;;;;;;5071685;28;20422;-57
2022/05/01 10:40:48;;;;;;;21.30;14.73;;;17.00;99.90;;;;;;5089771;28;20391;-57
2022/05/01 10:43:37;;;;;;;23.92;15.30;;;17.30;99.90;;;;;;5089071;28;20378;-57
2022/05/01 10:46:20;;;;;;;22.57;13.87;;;16.70;99.90;;;;;;5089826;28;20402;-57
2022/05/01 10:48:47;;;;;;;26.47;15.30;;;16.70;99.90;;;;;;5089748;28;20386;-57
2022/05/01 10:51:31;;;;;;;23.60;15.02;;;16.60;99.90;;;;;;5089011;28;20505;-57
2022/05/01 10:54:15;;;;;;;22.05;14.52;;;16.50;99.90;;;;;;5071795;28;20901;-57
2022/05/01 10:56:44;;;;;;;21.52;13.75;;;16.40;99.90;;;;;;5090155;28;20464;-57
2022/05/01 10:59:35;;;;;;;22.08;14.00;;;16.30;99.90;;;;;;5089201;28;20372;-57
2022/05/01 11:02:03;;;;;;;24.63;14.45;;;16.30;99.90;;;;;;5089350;28;20436;-57
2022/05/01 11:04:32;;;;;;;22.40;14.52;;;16.20;99.90;;;;;;5088481;28;20405;-57
2022/05/01 11:06:58;;;;;;;22.65;14.13;;;16.50;99.90;;;;;;5089813;28;20448;-57
2022/05/01 11:09:25;;;;;;;20.80;13.77;;;16.30;99.90;;;;;;5088858;28;20378;-57
2022/05/01 11:11:56;;;;;;;22.17;14.80;;;16.20;99.90;;;;;;5089245;28;20401;-57
2022/05/01 11:14:49;;;;;;;21.55;13.13;;;16.40;99.90;;;;;;5080365;28;20396;-57
2022/05/01 11:17:15;;;;;;;21.00;12.73;;;16.50;99.90;;;;;;5072832;28;20384;-57
2022/05/01 11:19:45;;;;;;;21.88;13.70;;;16.30;99.90;;;;;;5055515;28;20418;-57
2022/05/01 11:22:14;;;;;;;22.08;14.25;;;16.10;99.90;;;;;;5054734;28;20415;-57
2022/05/01 11:24:44;;;;;;;24.00;14.18;;;16.50;99.90;;;;;;5073141;28;20403;-57
2022/05/01 11:27:18;;;;;;;21.08;13.30;;;16.90;99.90;;;;;;5054819;28;20430;-57
2022/05/01 11:30:26;;;;;;;20.30;13.35;;;17.60;99.90;;;;;;5055229;28;20429;-57
2022/05/01 11:33:19;;;;;;;23.02;14.50;;;18.10;99.90;;;;;;5073293;28;20372;-55
2022/05/01 11:36:02;;;;;;;22.05;13.13;;;18.30;99.90;;;;;;5068052;28;20404;-55
2022/05/01 11:38:53;;;;;;;19.25;13.70;;;18.40;99.90;;;;;;5072179;28;20383;-55
2022/05/01 11:41:42;;;;;;;22.40;14.13;;;18.60;99.90;;;;;;5072090;28;20391;-56
2022/05/01 11:44:34;;;;;;;20.23;13.32;;;18.80;99.90;;;;;;5072774;28;20416;-55
2022/05/01 11:47:03;;;;;;;20.75;12.32;;;18.80;99.90;;;;;;5068889;28;20462;-56
2022/05/01 11:49:28;;;;;;;21.77;13.25;;;19.10;99.90;;;;;;5071991;28;20384;-56
2022/05/01 11:51:58;;;;;;;17.70;12.43;;;18.90;99.90;;;;;;5055071;28;20825;-55
2022/05/01 11:54:27;;;;;;;21.05;12.93;;;19.20;99.90;;;;;;5072220;28;20382;-55
2022/05/01 12:02:24;;;;;;;21.25;13.40;;;18.50;99.90;;;;;;5071827;28;20387;-55
2022/05/01 12:04:50;;;;;;;23.45;12.45;;;18.70;99.90;;;;;;5054455;28;20769;-55
2022/05/01 12:07:18;;;;;;;17.27;11.80;;;18.90;99.90;;;;;;5071548;28;20399;-55
2022/05/01 12:09:46;;;;;;;19.90;12.73;;;19.10;99.90;;;;;;5072534;28;20388;-55
2022/05/01 12:12:17;;;;;;;19.60;12.90;;;19.30;99.90;;;;;;5071711;28;20391;-55
2022/05/01 12:14:44;;;;;;;21.10;12.95;;;19.30;99.90;;;;;;5086861;28;20393;-55
2022/05/01 12:17:19;;;;;;;18.50;11.70;;;19.20;99.90;;;;;;5092091;28;20516;-55
2022/05/01 12:19:48;;;;;;;19.30;12.80;;;19.10;99.90;;;;;;5074262;28;20801;-55
2022/05/01 12:22:20;;;;;;;18.52;11.93;;;19.10;99.90;;;;;;5091345;28;20406;-55
2022/05/01 12:24:47;;;;;;;20.45;12.15;;;19.30;99.90;;;;;;5090962;28;20413;-55
2022/05/01 12:27:15;;;;;;;19.38;11.75;;;19.60;99.90;;;;;;5091574;28;20479;-55
2022/05/01 12:29:47;;;;;;;18.48;11.63;;;19.40;99.90;;;;;;5092042;28;20414;-55
2022/05/01 12:32:17;;;;;;;17.70;11.40;;;19.10;99.90;;;;;;5091466;28;20370;-55
2022/05/01 12:34:52;;;;;;;19.50;11.93;;;19.30;99.90;;;;;;5092208;28;20401;-55
2022/05/01 12:37:21;;;;;;;19.10;11.90;;;19.10;99.90;;;;;;5091359;28;20474;-55
2022/05/01 12:40:03;;;;;;;20.45;13.30;;;19.00;99.90;;;;;;5092192;28;20390;-55
2022/05/01 12:45:38;;;;;;;19.33;13.23;;;19.10;99.90;;;;;;5091151;28;21159;-55
2022/05/01 12:48:08;;;;;;;18.27;12.55;;;19.40;99.90;;;;;;5092120;28;20386;-55
2022/05/01 12:50:37;;;;;;;18.35;12.25;;;18.90;99.90;;;;;;5072558;28;21030;-56
2022/05/01 12:53:20;;;;;;;19.30;11.82;;;18.70;99.90;;;;;;5091590;28;20997;-55
2022/05/01 12:55:46;;;;;;;19.80;12.90;;;18.90;99.90;;;;;;5091466;28;20390;-55
2022/05/01 12:58:12;;;;;;;20.80;13.00;;;19.30;99.90;;;;;;5091081;28;20492;-55
2022/05/01 13:00:45;;;;;;;20.60;12.60;;;19.10;99.90;;;;;;5091587;28;20735;-55
2022/05/01 13:03:36;;;;;;;19.05;12.65;;;19.00;99.90;;;;;;5091721;28;20463;-55
2022/05/01 13:06:12;;;;;;;19.80;13.02;;;18.10;99.90;;;;;;5091325;28;20394;-55
2022/05/01 13:08:48;;;;;;;19.85;13.27;;;18.80;99.90;;;;;;5074655;28;20744;-57
2022/05/01 13:11:25;;;;;;;21.05;13.48;;;18.30;99.90;;;;;;5090682;28;20424;-57